Time;durP1;ratioP1;P1;durP2;ratioP2;P2;SDS_P1;SDS_P2;PMS_P1;PMS_P2;Temp;Humidity;BMP_temperature;BMP_pressure;BME280_temperature;BME280_humidity;BME280_pressure;Samples;Min_cycle;Max_cycle;Signal;HPM_P1;HPM_P2
2024/01/17 00:00:35;;;;;;;2.43;1.53;;;;;;;-5.60;100.00;99349.13;4967571;28;20457;-69
2024/01/17 00:03:02;;;;;;;3.63;1.87;;;;;;;-5.52;100.00;99340.16;4970442;28;20462;-70
2024/01/17 00:05:29;;;;;;;2.93;1.50;;;;;;;-5.47;100.00;99358.47;4970528;28;20443;-69
2024/01/17 00:07:55;;;;;;;5.27;2.23;;;;;;;-5.48;100.00;99351.53;4966442;28;20860;-69
2024/01/17 00:10:22;;;;;;;3.50;1.47;;;;;;;-5.53;100.00;99340.97;4968762;28;20483;-67
2024/01/17 00:12:48;;;;;;;5.27;1.80;;;;;;;-5.48;100.00;99349.84;4970747;28;20839;-70
2024/01/17 00:15:14;;;;;;;3.17;1.70;;;;;;;-5.49;100.00;99339.44;4968755;28;20489;-69
2024/01/17 00:17:41;;;;;;;3.23;2.03;;;;;;;-5.43;100.00;99334.66;4968377;28;20461;-68
2024/01/17 00:20:08;;;;;;;5.07;2.37;;;;;;;-5.45;100.00;99325.94;4969066;28;20536;-67
2024/01/17 00:22:34;;;;;;;4.53;2.27;;;;;;;-5.45;100.00;99319.09;4970347;28;20443;-69
2024/01/17 00:25:01;;;;;;;11.67;4.87;;;;;;;-5.42;100.00;99320.94;4970580;28;20445;-70
2024/01/17 00:27:27;;;;;;;2.63;1.93;;;;;;;-5.39;100.00;99321.13;4968877;28;20473;-68
2024/01/17 00:29:57;;;;;;;4.13;2.13;;;;;;;-5.40;100.00;99302.19;4969389;28;20464;-68
2024/01/17 00:32:25;;;;;;;4.73;2.23;;;;;;;-5.37;100.00;99301.47;4969103;28;20485;-69
2024/01/17 00:34:52;;;;;;;1.77;1.37;;;;;;;-5.35;100.00;99297.28;4968473;28;20494;-69
2024/01/17 00:37:18;;;;;;;6.67;2.53;;;;;;;-5.27;100.00;99285.72;4965019;28;20861;-68
2024/01/17 00:39:45;;;;;;;5.47;3.03;;;;;;;-5.10;100.00;99285.00;4970055;28;20464;-69
2024/01/17 00:42:11;;;;;;;4.27;2.23;;;;;;;-5.00;100.00;99280.34;4970200;28;22004;-68
2024/01/17 00:44:39;;;;;;;2.07;1.93;;;;;;;-4.93;100.00;99269.56;4964635;28;20469;-69
2024/01/17 00:47:07;;;;;;;2.50;1.73;;;;;;;-4.95;100.00;99256.56;4970422;28;20528;-68
2024/01/17 00:49:33;;;;;;;4.70;2.03;;;;;;;-4.92;100.00;99261.91;4953790;28;20468;-69
2024/01/17 00:51:59;;;;;;;2.07;1.20;;;;;;;-5.02;100.00;99264.78;4967338;28;20480;-68
2024/01/17 00:54:26;;;;;;;2.50;1.83;;;;;;;-5.09;100.00;99270.41;4970127;28;20448;-68
2024/01/17 00:56:52;;;;;;;12.23;5.30;;;;;;;-5.12;100.00;99272.81;4966690;28;20528;-69
2024/01/17 00:59:19;;;;;;;11.03;5.20;;;;;;;-5.23;100.00;99266.13;4966063;28;21019;-68
2024/01/17 01:01:45;;;;;;;4.20;1.73;;;;;;;-5.34;100.00;99251.75;4964155;28;20726;-69
2024/01/17 01:04:12;;;;;;;3.00;1.63;;;;;;;-5.36;100.00;99243.91;4967769;28;20536;-68
2024/01/17 01:06:38;;;;;;;16.90;6.37;;;;;;;-5.38;100.00;99246.41;4967651;28;20453;-68
2024/01/17 01:09:04;;;;;;;11.17;5.33;;;;;;;-5.40;100.00;99250.59;4967801;28;20890;-67
2024/01/17 01:11:35;;;;;;;11.10;5.17;;;;;;;-5.44;100.00;99253.78;4969593;28;21002;-69
2024/01/17 01:14:01;;;;;;;12.03;5.67;;;;;;;-5.43;100.00;99247.84;4970662;28;20809;-68
2024/01/17 01:16:28;;;;;;;9.70;5.00;;;;;;;-5.49;100.00;99239.75;4970196;28;20961;-68
2024/01/17 01:18:54;;;;;;;3.77;1.43;;;;;;;-5.49;100.00;99250.06;4965015;28;20497;-69
2024/01/17 01:21:21;;;;;;;9.40;2.23;;;;;;;-5.53;100.00;99255.84;4970071;28;20453;-68
2024/01/17 01:23:47;;;;;;;2.03;1.53;;;;;;;-5.50;100.00;99240.56;4966975;28;20462;-69
2024/01/17 01:26:14;;;;;;;1.73;1.27;;;;;;;-5.42;100.00;99235.81;4967606;28;22952;-69
2024/01/17 01:28:40;;;;;;;4.67;2.27;;;;;;;-5.25;100.00;99222.19;4967525;28;20459;-66
2024/01/17 01:31:07;;;;;;;9.80;5.50;;;;;;;-5.16;100.00;99222.72;4969425;28;20553;-69
2024/01/17 01:33:33;;;;;;;9.27;4.83;;;;;;;-5.16;100.00;99232.16;4965881;28;20533;-68
2024/01/17 01:36:00;;;;;;;6.67;1.43;;;;;;;-5.22;100.00;99229.19;4965737;28;20445;-70
2024/01/17 01:38:27;;;;;;;1.90;1.20;;;;;;;-5.26;100.00;99232.41;4969270;28;20441;-70
2024/01/17 01:40:53;;;;;;;2.63;1.67;;;;;;;-5.38;100.00;99237.78;4967458;28;20480;-68
2024/01/17 01:43:22;;;;;;;2.47;1.20;;;;;;;-5.45;100.00;99233.97;4969792;28;20544;-69
2024/01/17 01:46:03;;;;;;;1.07;0.97;;;;;;;-5.53;100.00;99226.59;4968342;28;20460;-68
2024/01/17 01:48:31;;;;;;;3.97;1.80;;;;;;;-5.58;100.00;99225.44;4965458;28;20461;-68
2024/01/17 01:50:58;;;;;;;2.37;1.60;;;;;;;-5.33;100.00;99219.97;4968557;28;20461;-68
2024/01/17 01:53:27;;;;;;;12.47;5.27;;;;;;;-5.28;100.00;99218.53;4966889;28;20560;-69
2024/01/17 01:55:56;;;;;;;2.37;1.97;;;;;;;-5.33;100.00;99222.56;4968213;28;20443;-69
2024/01/17 01:58:23;;;;;;;3.03;1.03;;;;;;;-5.31;100.00;99203.78;4965849;28;20442;-69
2024/01/17 02:00:51;;;;;;;2.87;1.57;;;;;;;-5.38;100.00;99206.81;4968764;28;20469;-69
2024/01/17 02:03:19;;;;;;;2.17;1.67;;;;;;;-5.49;100.00;99213.06;4967313;28;20452;-68
2024/01/17 02:05:46;;;;;;;3.83;1.90;;;;;;;-5.59;100.00;99201.34;4969012;28;20443;-68
2024/01/17 02:08:13;;;;;;;4.63;1.33;;;;;;;-5.70;100.00;99186.94;4968105;28;20466;-70
2024/01/17 02:10:39;;;;;;;3.90;1.67;;;;;;;-5.81;100.00;99173.44;4973498;28;20471;-68
2024/01/17 02:13:07;;;;;;;4.00;1.67;;;;;;;-5.88;100.00;99176.47;4974454;28;20486;-68
2024/01/17 02:15:33;;;;;;;2.40;1.60;;;;;;;-5.93;100.00;99172.78;4971403;28;20456;-69
2024/01/17 02:18:00;;;;;;;7.40;2.37;;;;;;;-5.75;100.00;99173.78;4975202;28;20443;-68
2024/01/17 02:20:26;;;;;;;9.67;4.77;;;;;;;-5.65;100.00;99167.44;4974782;28;20551;-69
2024/01/17 02:22:54;;;;;;;11.53;4.77;;;;;;;-5.71;100.00;99167.09;4975066;28;21206;-68
2024/01/17 02:25:20;;;;;;;12.17;5.40;;;;;;;-5.63;100.00;99152.94;4973236;28;20539;-69
2024/01/17 02:27:46;;;;;;;10.40;5.37;;;;;;;-5.60;100.00;99150.59;4976160;28;20436;-69
2024/01/17 02:30:14;;;;;;;13.10;5.00;;;;;;;-5.54;100.00;99147.44;4970532;28;20459;-68
2024/01/17 02:32:42;;;;;;;2.03;1.80;;;;;;;-5.65;100.00;99133.03;4975620;28;20476;-68
2024/01/17 02:35:09;;;;;;;2.37;1.60;;;;;;;-5.56;100.00;99138.75;4968622;28;20465;-67
2024/01/17 02:37:35;;;;;;;9.87;5.30;;;;;;;-5.57;100.00;99129.22;4972367;28;20460;-70
2024/01/17 02:40:02;;;;;;;3.47;1.73;;;;;;;-5.60;100.00;99124.78;4974514;28;21037;-71
2024/01/17 02:42:28;;;;;;;4.30;2.80;;;;;;;-5.63;100.00;99106.53;4975029;28;20516;-68
2024/01/17 02:44:56;;;;;;;2.20;1.40;;;;;;;-5.72;100.00;99101.75;4975673;28;20943;-67
2024/01/17 02:47:22;;;;;;;3.20;1.47;;;;;;;-5.76;100.00;99109.25;4972745;28;20523;-69
2024/01/17 02:49:48;;;;;;;2.70;1.10;;;;;;;-5.91;100.00;99103.28;4967343;28;20468;-69
2024/01/17 02:52:15;;;;;;;2.17;1.37;;;;;;;-6.02;100.00;99105.22;4969931;28;20531;-69
2024/01/17 02:54:42;;;;;;;2.80;1.43;;;;;;;-5.99;100.00;99101.94;4976082;28;20439;-68
2024/01/17 02:57:08;;;;;;;4.73;1.83;;;;;;;-6.03;100.00;99070.81;4971013;28;20437;-69
2024/01/17 02:59:36;;;;;;;8.23;1.23;;;;;;;-5.83;100.00;99089.09;4970936;28;20935;-70
2024/01/17 03:02:04;;;;;;;1.57;1.33;;;;;;;-5.78;100.00;99080.81;4974595;28;20467;-68
2024/01/17 03:04:30;;;;;;;5.83;1.93;;;;;;;-5.87;100.00;99085.44;4972788;28;20499;-69
2024/01/17 03:06:57;;;;;;;2.97;1.60;;;;;;;-5.97;100.00;99080.63;4968050;28;20445;-69
2024/01/17 03:09:25;;;;;;;2.77;1.47;;;;;;;-6.08;100.00;99074.84;4971461;28;20445;-71
2024/01/17 03:11:52;;;;;;;3.03;1.77;;;;;;;-6.03;100.00;99075.09;4974892;28;20495;-69
2024/01/17 03:14:19;;;;;;;3.33;1.73;;;;;;;-6.02;100.00;99075.19;4973559;28;20892;-69
2024/01/17 03:16:45;;;;;;;2.47;1.53;;;;;;;-5.82;100.00;99065.97;4974223;28;20941;-68
2024/01/17 03:19:14;;;;;;;2.43;1.77;;;;;;;-5.58;100.00;99078.47;4971488;28;20458;-69
2024/01/17 03:21:46;;;;;;;3.47;1.73;;;;;;;-5.56;100.00;99062.28;4972591;28;20458;-67
2024/01/17 03:24:13;;;;;;;12.00;5.63;;;;;;;-5.55;100.00;99056.31;4969639;28;20478;-70
2024/01/17 03:26:39;;;;;;;9.43;5.33;;;;;;;-5.58;100.00;99043.25;4970857;28;20533;-69
2024/01/17 03:29:06;;;;;;;12.03;6.03;;;;;;;-5.54;100.00;99046.88;4971064;28;21019;-68
2024/01/17 03:31:32;;;;;;;7.93;2.53;;;;;;;-5.52;100.00;99043.56;4972148;28;20836;-68
2024/01/17 03:33:59;;;;;;;3.77;1.83;;;;;;;-5.56;100.00;99026.16;4971758;28;20547;-67
2024/01/17 03:36:25;;;;;;;2.87;1.80;;;;;;;-5.60;100.00;99034.53;4971117;28;20457;-68
2024/01/17 03:38:52;;;;;;;3.70;1.33;;;;;;;-5.62;100.00;99030.06;4970875;28;20449;-69
2024/01/17 03:41:18;;;;;;;1.53;1.37;;;;;;;-5.53;100.00;99028.91;4971816;28;20472;-68
2024/01/17 03:43:45;;;;;;;2.57;1.40;;;;;;;-5.53;100.00;99022.88;4972214;28;20962;-68
2024/01/17 03:46:11;;;;;;;3.07;1.47;;;;;;;-5.72;100.00;99014.13;4969534;28;20460;-69
2024/01/17 03:48:38;;;;;;;2.70;1.93;;;;;;;-5.89;100.00;99008.88;4969208;28;20539;-69
2024/01/17 03:51:05;;;;;;;3.20;1.90;;;;;;;-5.97;100.00;99010.16;4970279;28;20469;-69
2024/01/17 03:53:32;;;;;;;3.73;1.80;;;;;;;-6.06;100.00;99010.50;4971815;28;20859;-69
2024/01/17 03:55:58;;;;;;;6.00;1.93;;;;;;;-5.99;100.00;99004.03;4970997;28;20524;-69
2024/01/17 03:58:25;;;;;;;3.33;2.03;;;;;;;-5.94;100.00;99000.00;4970528;28;20504;-69
2024/01/17 04:00:51;;;;;;;3.27;1.70;;;;;;;-5.89;100.00;98994.28;4967523;28;20481;-68
2024/01/17 04:03:18;;;;;;;4.93;2.40;;;;;;;-5.85;100.00;98983.31;4971589;28;20451;-68
2024/01/17 04:05:44;;;;;;;6.70;2.77;;;;;;;-5.92;100.00;98981.25;4970383;28;20944;-69
2024/01/17 04:08:11;;;;;;;17.23;7.50;;;;;;;-5.86;100.00;98966.09;4967683;28;20491;-69
2024/01/17 04:10:37;;;;;;;11.67;6.77;;;;;;;-5.77;100.00;98956.25;4970102;28;21105;-69
2024/01/17 04:13:04;;;;;;;3.23;2.07;;;;;;;-5.77;100.00;98952.81;4969868;28;20623;-69
2024/01/17 04:15:30;;;;;;;7.33;3.40;;;;;;;-5.90;100.00;98943.56;4969710;28;20456;-69
2024/01/17 04:17:56;;;;;;;2.90;2.27;;;;;;;-5.90;100.00;98941.00;4971522;28;20890;-69
2024/01/17 04:20:23;;;;;;;9.40;2.17;;;;;;;-5.76;100.00;98929.69;4970671;28;20515;-69
2024/01/17 04:22:49;;;;;;;8.73;1.73;;;;;;;-5.75;100.00;98928.88;4969928;28;20884;-69
2024/01/17 04:25:16;;;;;;;4.30;1.80;;;;;;;-5.75;100.00;98922.84;4970555;28;20521;-70
2024/01/17 04:27:42;;;;;;;15.27;7.37;;;;;;;-5.75;100.00;98917.69;4971010;28;20954;-69
2024/01/17 04:30:11;;;;;;;5.10;2.07;;;;;;;-5.76;100.00;98918.47;4964003;28;20460;-69
2024/01/17 04:32:37;;;;;;;14.13;7.27;;;;;;;-5.69;100.00;98928.31;4970981;28;20482;-69
2024/01/17 04:35:05;;;;;;;4.60;2.53;;;;;;;-5.68;100.00;98912.91;4970976;28;20453;-70
2024/01/17 04:37:31;;;;;;;7.90;3.13;;;;;;;-5.59;100.00;98907.38;4969111;28;20824;-68
2024/01/17 04:39:58;;;;;;;3.93;1.70;;;;;;;-5.41;100.00;98894.53;4969723;28;20491;-67
2024/01/17 04:42:24;;;;;;;7.03;2.87;;;;;;;-5.22;100.00;98889.50;4967702;28;20540;-68
2024/01/17 04:44:50;;;;;;;4.10;1.53;;;;;;;-5.22;100.00;98871.44;4967544;28;20460;-67
2024/01/17 04:47:17;;;;;;;5.07;2.10;;;;;;;-5.17;100.00;98875.16;4971059;28;20472;-67
2024/01/17 04:49:43;;;;;;;8.30;2.30;;;;;;;-5.15;100.00;98845.16;4967480;28;20491;-68
2024/01/17 04:52:15;;;;;;;4.53;2.27;;;;;;;-5.14;100.00;98840.91;4970162;28;20485;-68
2024/01/17 04:54:42;;;;;;;2.00;1.60;;;;;;;-4.99;100.00;98849.38;4965797;28;20446;-68
2024/01/17 04:57:08;;;;;;;4.53;2.20;;;;;;;-4.98;100.00;98850.25;4967997;28;20733;-68
2024/01/17 04:59:35;;;;;;;5.67;2.43;;;;;;;-5.00;100.00;98826.97;4970332;28;20448;-69
2024/01/17 05:02:02;;;;;;;4.20;1.90;;;;;;;-4.97;100.00;98831.38;4968612;28;20478;-66
2024/01/17 05:04:28;;;;;;;3.00;2.63;;;;;;;-4.97;100.00;98821.06;4965589;28;20470;-68
2024/01/17 05:06:55;;;;;;;6.53;2.23;;;;;;;-4.96;100.00;98804.75;4969530;28;20462;-69
2024/01/17 05:09:22;;;;;;;9.20;2.67;;;;;;;-4.86;100.00;98820.75;4968480;28;20443;-69
2024/01/17 05:11:49;;;;;;;12.03;6.40;;;;;;;-4.83;100.00;98814.84;4969283;28;20465;-69
2024/01/17 05:14:15;;;;;;;5.77;1.83;;;;;;;-4.77;100.00;98815.19;4971224;28;20443;-69
2024/01/17 05:16:42;;;;;;;13.17;6.13;;;;;;;-4.66;100.00;98801.06;4968654;28;20429;-69
2024/01/17 05:19:09;;;;;;;14.20;6.70;;;;;;;-4.60;100.00;98801.34;4966672;28;20658;-69
2024/01/17 05:21:38;;;;;;;5.00;2.30;;;;;;;-4.55;100.00;98781.78;4969075;28;20549;-69
2024/01/17 05:24:04;;;;;;;2.97;1.73;;;;;;;-4.23;100.00;98784.97;4969309;28;20532;-68
2024/01/17 05:26:31;;;;;;;3.60;2.20;;;;;;;-4.18;100.00;98765.38;4967570;28;20461;-69
2024/01/17 05:28:57;;;;;;;10.37;2.80;;;;;;;-4.25;100.00;98764.22;4968740;28;20999;-69
2024/01/17 05:31:23;;;;;;;6.83;2.70;;;;;;;-4.28;100.00;98766.69;4966860;28;20900;-68
2024/01/17 05:33:50;;;;;;;2.80;1.77;;;;;;;-4.32;100.00;98756.13;4968246;28;20483;-68
2024/01/17 05:36:17;;;;;;;5.57;1.73;;;;;;;-4.11;100.00;98764.84;4966198;28;21045;-69
2024/01/17 05:38:43;;;;;;;13.67;6.90;;;;;;;-4.02;100.00;98759.19;4967484;28;20544;-69
2024/01/17 05:41:10;;;;;;;3.87;1.40;;;;;;;-4.06;100.00;98752.09;4968983;28;20538;-69
2024/01/17 05:43:36;;;;;;;3.43;1.60;;;;;;;-4.12;100.00;98747.56;4969235;28;20434;-69
2024/01/17 05:46:03;;;;;;;2.73;2.20;;;;;;;-4.15;100.00;98730.22;4966560;28;21296;-67
2024/01/17 05:48:29;;;;;;;14.53;6.17;;;;;;;-4.18;100.00;98727.50;4968494;28;20452;-70
2024/01/17 05:50:56;;;;;;;2.80;1.97;;;;;;;-4.20;100.00;98715.34;4967483;28;20912;-69
2024/01/17 05:53:23;;;;;;;3.13;2.20;;;;;;;-4.19;100.00;98709.34;4969342;28;20514;-68
2024/01/17 05:55:49;;;;;;;6.47;3.40;;;;;;;-4.17;100.00;98706.00;4965007;28;20441;-70
2024/01/17 05:58:18;;;;;;;1.93;1.50;;;;;;;-4.11;100.00;98703.69;4963487;28;20548;-68
2024/01/17 06:00:44;;;;;;;2.93;2.20;;;;;;;-3.95;100.00;98710.41;4968874;28;20471;-68
2024/01/17 06:03:11;;;;;;;15.90;7.40;;;;;;;-3.95;100.00;98704.38;4967965;28;20967;-68
2024/01/17 06:05:37;;;;;;;2.43;2.23;;;;;;;-3.90;100.00;98700.28;4966205;28;20468;-68
2024/01/17 06:08:06;;;;;;;3.10;2.33;;;;;;;-3.85;100.00;98697.06;4961600;28;20464;-68
2024/01/17 06:10:33;;;;;;;6.83;3.00;;;;;;;-3.83;100.00;98690.25;4963762;28;20492;-68
2024/01/17 06:12:59;;;;;;;4.37;2.50;;;;;;;-3.86;100.00;98681.47;4970601;28;20876;-68
2024/01/17 06:15:26;;;;;;;16.37;8.00;;;;;;;-3.73;100.00;98681.16;4968101;28;20823;-67
2024/01/17 06:17:53;;;;;;;5.17;2.60;;;;;;;-3.76;100.00;98672.41;4967344;28;20519;-68
2024/01/17 06:20:19;;;;;;;5.60;2.73;;;;;;;-3.74;100.00;98676.81;4969350;28;20444;-68
2024/01/17 06:22:46;;;;;;;4.73;2.50;;;;;;;-3.80;100.00;98667.09;4968645;28;20437;-69
2024/01/17 06:25:12;;;;;;;9.57;2.67;;;;;;;-3.82;100.00;98670.44;4967781;28;20465;-69
2024/01/17 06:27:38;;;;;;;18.67;8.33;;;;;;;-3.72;100.00;98671.69;4964177;28;20472;-69
2024/01/17 06:30:06;;;;;;;5.93;2.63;;;;;;;-3.77;100.00;98668.94;4966884;28;20548;-67
2024/01/17 06:32:32;;;;;;;3.43;2.43;;;;;;;-3.69;100.00;98659.78;4967604;28;21052;-69
2024/01/17 06:34:59;;;;;;;4.70;2.40;;;;;;;-3.57;100.00;98660.31;4969320;28;20441;-69
2024/01/17 06:37:25;;;;;;;3.77;2.07;;;;;;;-3.58;100.00;98648.19;4968160;28;20449;-68
2024/01/17 06:39:52;;;;;;;5.70;2.73;;;;;;;-3.55;100.00;98645.72;4970530;28;20435;-68
2024/01/17 06:42:19;;;;;;;3.30;1.50;;;;;;;-3.58;100.00;98644.72;4966529;28;20463;-67
2024/01/17 06:44:46;;;;;;;5.43;2.20;;;;;;;-3.55;100.00;98639.66;4970522;28;20443;-65
2024/01/17 06:47:12;;;;;;;21.87;2.67;;;;;;;-3.56;100.00;98640.50;4965538;28;21040;-68
2024/01/17 06:49:41;;;;;;;6.50;2.93;;;;;;;-3.56;100.00;98630.16;4966587;28;20460;-67
2024/01/17 06:52:07;;;;;;;6.80;2.33;;;;;;;-3.53;100.00;98623.38;4966717;28;20473;-66
2024/01/17 06:54:34;;;;;;;2.80;1.57;;;;;;;-3.50;100.00;98626.09;4969274;28;20512;-67
2024/01/17 06:57:00;;;;;;;6.33;2.80;;;;;;;-3.43;100.00;98623.75;4971807;28;21032;-67
2024/01/17 06:59:27;;;;;;;4.73;2.20;;;;;;;-3.41;100.00;98622.97;4967345;28;20465;-67
2024/01/17 07:01:54;;;;;;;10.20;3.47;;;;;;;-3.37;100.00;98623.97;4971944;28;20465;-68
2024/01/17 07:04:21;;;;;;;6.43;3.20;;;;;;;-3.43;100.00;98603.03;4966208;28;20433;-69
2024/01/17 07:06:47;;;;;;;6.63;2.93;;;;;;;-3.29;100.00;98612.22;4967896;28;20469;-71
2024/01/17 07:09:14;;;;;;;11.83;2.70;;;;;;;-3.22;100.00;98606.44;4968819;28;20987;-70
2024/01/17 07:11:41;;;;;;;20.17;8.80;;;;;;;-3.28;100.00;98593.28;4968720;28;20456;-71
2024/01/17 07:14:08;;;;;;;6.70;3.37;;;;;;;-3.23;100.00;98590.03;4965230;28;20888;-70
2024/01/17 07:16:35;;;;;;;9.37;3.63;;;;;;;-3.17;100.00;98592.88;4956138;28;20962;-73
2024/01/17 07:19:01;;;;;;;9.33;2.87;;;;;;;-3.11;100.00;98588.75;4966451;28;20464;-73
2024/01/17 07:21:28;;;;;;;6.07;2.53;;;;;;;-3.17;100.00;98579.94;4964294;28;21091;-72
2024/01/17 07:23:54;;;;;;;3.73;2.60;;;;;;;-3.07;100.00;98582.88;4956013;28;20492;-69
2024/01/17 07:26:21;;;;;;;5.13;2.33;;;;;;;-3.04;100.00;98573.50;4966155;28;20455;-72
2024/01/17 07:28:47;;;;;;;7.80;2.70;;;;;;;-3.04;100.00;98564.84;4970562;28;20288;-71
2024/01/17 07:31:13;;;;;;;27.67;2.97;;;;;;;-2.97;100.00;98577.19;4963023;28;20226;-72
2024/01/17 07:33:40;;;;;;;12.07;3.53;;;;;;;-2.91;100.00;98567.94;4968204;28;20559;-72
2024/01/17 07:36:07;;;;;;;17.10;8.43;;;;;;;-2.83;100.00;98566.50;4967517;28;20255;-72
2024/01/17 07:38:33;;;;;;;26.40;12.70;;;;;;;-2.74;100.00;98553.03;4971480;28;20642;-71
2024/01/17 07:41:00;;;;;;;12.33;4.63;;;;;;;-2.86;100.00;98537.03;4969549;28;20222;-70
2024/01/17 07:43:26;;;;;;;6.97;3.10;;;;;;;-2.80;100.00;98544.13;4967611;28;20536;-72
2024/01/17 07:45:53;;;;;;;9.73;3.43;;;;;;;-2.77;100.00;98541.69;4968378;28;20945;-73
2024/01/17 07:48:19;;;;;;;11.67;4.90;;;;;;;-2.78;100.00;98516.63;4970647;28;20476;-72
2024/01/17 07:50:47;;;;;;;12.70;3.50;;;;;;;-2.69;100.00;98517.81;4965265;28;20241;-73
2024/01/17 07:53:13;;;;;;;9.57;4.43;;;;;;;-2.63;100.00;98518.03;4966199;28;20880;-74
2024/01/17 07:55:42;;;;;;;7.57;3.63;;;;;;;-2.49;100.00;98515.00;4968154;28;20585;-69
2024/01/17 07:58:10;;;;;;;7.30;3.47;;;;;;;-2.46;100.00;98507.34;4969135;28;20210;-72
2024/01/17 08:00:36;;;;;;;7.70;3.10;;;;;;;-2.40;100.00;98505.88;4965188;28;20568;-70
2024/01/17 08:03:03;;;;;;;9.70;3.73;;;;;;;-2.36;100.00;98502.53;4968100;28;20436;-72
2024/01/17 08:05:33;;;;;;;10.30;3.97;;;;;;;-2.27;100.00;98489.00;4968258;28;20450;-71
2024/01/17 08:08:00;;;;;;;3.30;2.37;;;;;;;-2.23;100.00;98485.69;4968657;28;20661;-72
2024/01/17 08:10:27;;;;;;;7.43;3.40;;;;;;;-2.17;100.00;98480.69;4968540;28;21672;-75
2024/01/17 08:12:54;;;;;;;5.50;3.20;;;;;;;-2.19;100.00;98484.06;4967492;28;20272;-71
2024/01/17 08:15:20;;;;;;;7.87;2.90;;;;;;;-2.14;100.00;98475.59;4961473;28;20292;-72
2024/01/17 08:17:47;;;;;;;17.77;8.07;;;;;;;-2.09;100.00;98468.84;4968581;28;20215;-73
2024/01/17 08:20:16;;;;;;;8.10;3.20;;;;;;;-2.03;100.00;98474.22;4964735;28;20650;-71
2024/01/17 08:22:43;;;;;;;9.80;3.33;;;;;;;-1.95;100.00;98464.13;4971805;28;20479;-71
2024/01/17 08:25:09;;;;;;;9.17;3.83;;;;;;;-1.91;100.00;98459.06;4968735;28;20206;-71
2024/01/17 08:27:36;;;;;;;9.07;4.07;;;;;;;-1.80;100.00;98448.13;4968496;28;20704;-69
2024/01/17 08:30:09;;;;;;;9.40;3.97;;;;;;;-1.80;100.00;98437.75;4962916;28;20210;-69
2024/01/17 08:32:36;;;;;;;7.60;3.23;;;;;;;-1.82;100.00;98442.91;4968014;28;20206;-70
2024/01/17 08:35:03;;;;;;;7.40;3.33;;;;;;;-1.82;100.00;98436.84;4964522;28;20903;-70
2024/01/17 08:37:30;;;;;;;8.30;3.43;;;;;;;-1.88;100.00;98429.75;4968623;28;20239;-69
2024/01/17 08:39:57;;;;;;;8.43;3.73;;;;;;;-1.94;100.00;98433.03;4966456;28;20227;-69
2024/01/17 08:42:23;;;;;;;12.27;3.17;;;;;;;-1.94;100.00;98416.59;4967107;28;20673;-70
2024/01/17 08:44:50;;;;;;;5.13;2.90;;;;;;;-1.93;100.00;98418.34;4968878;28;20226;-73
2024/01/17 08:47:16;;;;;;;6.77;3.03;;;;;;;-2.02;100.00;98394.72;4967733;28;20236;-73
2024/01/17 08:49:43;;;;;;;9.07;4.50;;;;;;;-1.79;100.00;98400.59;4957025;28;20303;-70
2024/01/17 08:52:09;;;;;;;8.50;4.10;;;;;;;-1.78;100.00;98385.06;4965909;28;20229;-70
2024/01/17 08:54:36;;;;;;;5.90;3.37;;;;;;;-1.70;100.00;98391.38;4966480;28;20280;-73
2024/01/17 08:57:02;;;;;;;13.17;3.03;;;;;;;-1.57;100.00;98384.84;4968209;28;20293;-70
2024/01/17 08:59:33;;;;;;;7.37;3.40;;;;;;;-1.48;100.00;98379.91;4966604;28;20211;-69
2024/01/17 09:01:59;;;;;;;11.03;3.87;;;;;;;-1.46;100.00;98361.78;4968096;28;20336;-71
2024/01/17 09:04:26;;;;;;;10.87;4.20;;;;;;;-1.32;100.00;98361.31;4962873;28;20268;-71
2024/01/17 09:06:52;;;;;;;14.03;4.03;;;;;;;-1.26;100.00;98347.59;4968298;28;20292;-74
2024/01/17 09:09:20;;;;;;;10.47;4.03;;;;;;;-1.26;100.00;98345.00;4964937;28;20292;-71
2024/01/17 09:11:47;;;;;;;7.97;4.03;;;;;;;-1.15;100.00;98337.53;4965433;28;20229;-73
2024/01/17 09:14:14;;;;;;;8.80;4.10;;;;;;;-1.22;100.00;98326.06;4947553;28;20682;-73
2024/01/17 09:16:40;;;;;;;8.00;4.17;;;;;;;-1.09;100.00;98335.97;4965564;28;20200;-73
2024/01/17 09:19:06;;;;;;;9.67;4.23;;;;;;;-1.09;100.00;98320.38;4966630;28;20211;-72
2024/01/17 09:21:33;;;;;;;9.53;4.63;;;;;;;-1.18;100.00;98314.06;4966161;28;20230;-71
2024/01/17 09:24:00;;;;;;;8.80;4.50;;;;;;;-1.03;100.00;98312.75;4967226;28;20422;-70
2024/01/17 09:26:26;;;;;;;11.50;5.03;;;;;;;-1.05;100.00;98316.13;4971751;28;20213;-71
2024/01/17 09:28:52;;;;;;;11.80;4.77;;;;;;;-1.09;100.00;98306.50;4970052;28;20593;-71
2024/01/17 09:31:19;;;;;;;13.50;5.90;;;;;;;-0.97;100.00;98307.69;4966304;28;20233;-70
2024/01/17 09:33:45;;;;;;;12.43;5.20;;;;;;;-1.01;100.00;98287.69;4964216;28;20228;-72
2024/01/17 09:36:12;;;;;;;13.40;5.43;;;;;;;-0.80;100.00;98291.63;4967833;28;20639;-70
2024/01/17 09:38:38;;;;;;;9.07;4.63;;;;;;;-0.82;100.00;98301.97;4964319;28;20203;-70
2024/01/17 09:41:05;;;;;;;9.90;5.13;;;;;;;-0.77;100.00;98299.53;4966844;28;20242;-75
2024/01/17 09:43:31;;;;;;;13.47;5.47;;;;;;;-0.75;100.00;98301.31;4965926;28;20226;-73
2024/01/17 09:46:00;;;;;;;13.33;5.23;;;;;;;-0.74;100.00;98287.47;4967981;28;20221;-71
2024/01/17 09:48:27;;;;;;;10.63;5.03;;;;;;;-0.72;100.00;98283.19;4964375;28;20347;-70
2024/01/17 09:50:55;;;;;;;14.30;6.00;;;;;;;-0.66;100.00;98279.84;4965533;28;20231;-72
2024/01/17 09:53:27;;;;;;;14.27;5.70;;;;;;;-0.58;100.00;98280.91;4964495;28;20702;-72
2024/01/17 09:55:58;;;;;;;14.70;5.57;;;;;;;-0.53;100.00;98275.81;4976943;28;20684;-71
2024/01/17 09:58:27;;;;;;;14.80;5.40;;;;;;;-0.57;100.00;98269.66;4963091;28;20205;-71
2024/01/17 10:00:55;;;;;;;14.83;5.47;;;;;;;-0.60;100.00;98256.59;4965064;28;20230;-71
2024/01/17 10:03:24;;;;;;;13.43;6.17;;;;;;;-0.59;100.00;98247.97;4965122;28;20215;-72
2024/01/17 10:05:52;;;;;;;11.53;5.13;;;;;;;-0.58;100.00;98233.25;4966376;28;20212;-71
2024/01/17 10:08:20;;;;;;;12.00;5.10;;;;;;;-0.64;100.00;98231.41;4965114;28;20211;-72
2024/01/17 10:10:46;;;;;;;10.37;4.87;;;;;;;-0.46;100.00;98238.72;4965606;28;20232;-72
2024/01/17 10:13:13;;;;;;;12.43;5.50;;;;;;;-0.37;100.00;98224.22;4965080;28;20216;-72
2024/01/17 10:15:44;;;;;;;13.40;5.10;;;;;;;-0.41;100.00;98216.28;4962415;28;20214;-71
2024/01/17 10:18:12;;;;;;;14.13;5.57;;;;;;;-0.27;100.00;98212.28;4966963;28;20208;-73
2024/01/17 10:20:38;;;;;;;10.57;5.73;;;;;;;-0.35;100.00;98211.25;4965826;28;20629;-71
2024/01/17 10:23:08;;;;;;;11.43;5.03;;;;;;;-0.35;100.00;98206.91;4962068;28;20703;-74
2024/01/17 10:25:39;;;;;;;13.13;5.43;;;;;;;-0.47;100.00;98188.44;4958960;28;20236;-70
2024/01/17 10:28:06;;;;;;;10.40;5.33;;;;;;;-0.51;100.00;98190.94;4956871;28;20295;-71
2024/01/17 10:30:36;;;;;;;11.10;5.47;;;;;;;-0.48;100.00;98176.28;4965113;28;20231;-73
2024/01/17 10:33:03;;;;;;;9.57;5.10;;;;;;;-0.44;100.00;98164.22;4970996;28;20224;-73
2024/01/17 10:35:30;;;;;;;12.50;6.10;;;;;;;-0.41;100.00;98165.16;4968915;28;20221;-71
2024/01/17 10:37:57;;;;;;;11.97;6.20;;;;;;;-0.43;100.00;98155.56;4969150;28;20265;-71
2024/01/17 10:40:24;;;;;;;10.60;5.17;;;;;;;-0.37;100.00;98150.53;4964701;28;22454;-75
2024/01/17 10:43:07;;;;;;;12.53;6.03;;;;;;;-0.43;100.00;98150.38;4961855;28;20760;-69
2024/01/17 10:45:35;;;;;;;13.57;5.27;;;;;;;-0.46;100.00;98142.50;4962647;28;20524;-72
2024/01/17 10:48:01;;;;;;;16.67;7.23;;;;;;;-0.69;100.00;98136.84;4970392;28;20264;-72
2024/01/17 10:50:29;;;;;;;13.87;5.20;;;;;;;-0.68;100.00;98125.63;4964591;28;20298;-72
2024/01/17 10:53:07;;;;;;;11.80;5.60;;;;;;;-0.73;100.00;98120.31;4963395;28;20616;-72
2024/01/17 10:55:36;;;;;;;12.07;4.90;;;;;;;-0.69;100.00;98122.13;4969236;28;20231;-71
2024/01/17 10:58:09;;;;;;;12.77;5.40;;;;;;;-0.59;100.00;98115.41;4968507;28;20692;-71
2024/01/17 11:00:40;;;;;;;12.97;5.77;;;;;;;-0.61;100.00;98124.03;4967866;28;20231;-70
2024/01/17 11:03:11;;;;;;;12.63;6.20;;;;;;;-0.61;100.00;98116.22;4965073;28;20299;-73
2024/01/17 11:05:49;;;;;;;18.60;6.63;;;;;;;-0.62;100.00;98115.34;4965907;28;20264;-70
2024/01/17 11:08:18;;;;;;;12.43;6.47;;;;;;;-0.63;100.00;98105.78;4968222;28;20220;-71
2024/01/17 11:10:45;;;;;;;14.77;6.33;;;;;;;-0.69;100.00;98105.66;4970215;28;20236;-73
2024/01/17 11:13:14;;;;;;;13.77;6.50;;;;;;;-0.71;100.00;98104.75;4971662;28;20216;-71
2024/01/17 11:15:43;;;;;;;13.37;5.73;;;;;;;-0.71;100.00;98108.25;4967708;28;20228;-70
2024/01/17 11:18:10;;;;;;;16.77;6.13;;;;;;;-0.68;100.00;98107.44;4967952;28;20210;-71
2024/01/17 11:20:39;;;;;;;15.20;5.90;;;;;;;-0.70;100.00;98106.53;4970320;28;20252;-70